sensor_id;sensor_type;location;lat;lon;timestamp;pressure;altitude;pressure_sealevel;temperature;humidity
45621;BME280;31345;51.522;10.702;2022-10-16T00:00:45;98715.44;;;13.50;100.00
45621;BME280;31345;51.522;10.702;2022-10-16T00:03:13;98705.38;;;13.55;100.00
45621;BME280;31345;51.522;10.702;2022-10-16T00:05:43;98700.19;;;13.44;100.00
45621;BME280;31345;51.522;10.702;2022-10-16T00:08:11;98696.31;;;13.59;100.00
45621;BME280;31345;51.522;10.702;2022-10-16T00:10:41;98700.72;;;13.59;100.00
45621;BME280;31345;51.522;10.702;2022-10-16T00:13:08;98716.13;;;13.52;100.00
45621;BME280;31345;51.522;10.702;2022-10-16T00:15:36;98705.16;;;13.58;100.00
45621;BME280;31345;51.522;10.702;2022-10-16T00:18:06;98714.81;;;13.58;100.00
45621;BME280;31345;51.522;10.702;2022-10-16T00:20:34;98721.63;;;13.49;100.00
45621;BME280;31345;51.522;10.702;2022-10-16T00:23:03;98719.38;;;13.56;100.00
45621;BME280;31345;51.522;10.702;2022-10-16T00:25:31;98721.72;;;13.59;100.00
45621;BME280;31345;51.522;10.702;2022-10-16T00:28:01;98732.41;;;13.67;100.00
45621;BME280;31345;51.522;10.702;2022-10-16T00:30:29;98730.31;;;13.61;100.00
45621;BME280;31345;51.522;10.702;2022-10-16T00:32:57;98733.38;;;13.66;100.00
45621;BME280;31345;51.522;10.702;2022-10-16T00:35:24;98738.31;;;13.81;100.00
45621;BME280;31345;51.522;10.702;2022-10-16T00:37:52;98737.09;;;13.85;100.00
45621;BME280;31345;51.522;10.702;2022-10-16T00:40:20;98742.97;;;13.77;100.00
45621;BME280;31345;51.522;10.702;2022-10-16T00:42:48;98742.22;;;13.86;100.00
45621;BME280;31345;51.522;10.702;2022-10-16T00:45:17;98742.78;;;13.90;100.00
45621;BME280;31345;51.522;10.702;2022-10-16T00:47:45;98746.50;;;13.87;100.00
45621;BME280;31345;51.522;10.702;2022-10-16T00:50:18;98748.28;;;13.87;100.00
45621;BME280;31345;51.522;10.702;2022-10-16T00:52:50;98742.09;;;13.88;100.00
45621;BME280;31345;51.522;10.702;2022-10-16T00:55:19;98746.25;;;13.91;100.00
45621;BME280;31345;51.522;10.702;2022-10-16T00:57:47;98746.50;;;13.87;100.00
45621;BME280;31345;51.522;10.702;2022-10-16T01:00:21;98741.97;;;13.90;100.00
45621;BME280;31345;51.522;10.702;2022-10-16T01:02:52;98735.59;;;13.92;100.00
45621;BME280;31345;51.522;10.702;2022-10-16T01:05:21;98756.81;;;14.00;100.00
45621;BME280;31345;51.522;10.702;2022-10-16T01:07:56;98739.97;;;14.13;100.00
45621;BME280;31345;51.522;10.702;2022-10-16T01:10:38;98729.31;;;14.14;100.00
45621;BME280;31345;51.522;10.702;2022-10-16T01:13:10;98727.09;;;14.10;100.00
45621;BME280;31345;51.522;10.702;2022-10-16T01:15:45;98725.44;;;14.09;100.00
45621;BME280;31345;51.522;10.702;2022-10-16T01:18:20;98730.00;;;14.17;100.00
45621;BME280;31345;51.522;10.702;2022-10-16T01:20:54;98732.47;;;14.08;100.00
45621;BME280;31345;51.522;10.702;2022-10-16T01:23:36;98719.88;;;14.02;100.00
45621;BME280;31345;51.522;10.702;2022-10-16T01:26:17;98736.50;;;14.12;100.00
45621;BME280;31345;51.522;10.702;2022-10-16T01:28:54;98748.13;;;14.10;100.00
45621;BME280;31345;51.522;10.702;2022-10-16T01:31:26;98750.31;;;14.05;100.00
45621;BME280;31345;51.522;10.702;2022-10-16T01:33:56;98757.06;;;13.97;100.00
45621;BME280;31345;51.522;10.702;2022-10-16T01:36:29;98743.19;;;13.95;100.00
45621;BME280;31345;51.522;10.702;2022-10-16T01:39:00;98748.03;;;13.90;100.00
45621;BME280;31345;51.522;10.702;2022-10-16T01:41:32;98746.63;;;13.86;100.00
45621;BME280;31345;51.522;10.702;2022-10-16T01:44:05;98759.94;;;13.94;100.00
45621;BME280;31345;51.522;10.702;2022-10-16T01:46:36;98752.66;;;13.98;100.00
45621;BME280;31345;51.522;10.702;2022-10-16T01:49:04;98756.53;;;14.04;100.00
45621;BME280;31345;51.522;10.702;2022-10-16T01:51:34;98762.09;;;14.10;100.00
45621;BME280;31345;51.522;10.702;2022-10-16T01:54:04;98761.25;;;14.10;100.00
45621;BME280;31345;51.522;10.702;2022-10-16T01:56:35;98772.03;;;14.07;100.00
45621;BME280;31345;51.522;10.702;2022-10-16T01:59:07;98765.50;;;14.01;100.00
45621;BME280;31345;51.522;10.702;2022-10-16T02:01:40;98756.69;;;14.02;100.00
45621;BME280;31345;51.522;10.702;2022-10-16T02:04:13;98743.69;;;14.10;100.00
45621;BME280;31345;51.522;10.702;2022-10-16T02:06:42;98744.09;;;14.06;100.00
45621;BME280;31345;51.522;10.702;2022-10-16T02:09:10;98754.59;;;14.06;100.00
45621;BME280;31345;51.522;10.702;2022-10-16T02:11:38;98753.47;;;13.98;100.00
45621;BME280;31345;51.522;10.702;2022-10-16T02:14:07;98760.66;;;13.96;100.00
45621;BME280;31345;51.522;10.702;2022-10-16T02:16:38;98766.34;;;14.01;100.00
45621;BME280;31345;51.522;10.702;2022-10-16T02:19:12;98767.88;;;14.04;100.00
45621;BME280;31345;51.522;10.702;2022-10-16T02:21:43;98771.53;;;14.13;100.00
45621;BME280;31345;51.522;10.702;2022-10-16T02:24:18;98788.94;;;14.14;100.00
45621;BME280;31345;51.522;10.702;2022-10-16T02:26:49;98783.47;;;14.27;100.00
45621;BME280;31345;51.522;10.702;2022-10-16T02:29:22;98776.41;;;14.27;100.00
45621;BME280;31345;51.522;10.702;2022-10-16T02:31:55;98774.56;;;14.18;100.00
45621;BME280;31345;51.522;10.702;2022-10-16T02:34:25;98784.06;;;14.09;100.00
45621;BME280;31345;51.522;10.702;2022-10-16T02:36:54;98784.06;;;14.09;100.00
45621;BME280;31345;51.522;10.702;2022-10-16T02:39:23;98781.59;;;14.08;100.00
45621;BME280;31345;51.522;10.702;2022-10-16T02:41:51;98775.28;;;14.20;100.00
45621;BME280;31345;51.522;10.702;2022-10-16T02:44:20;98769.06;;;14.21;100.00
45621;BME280;31345;51.522;10.702;2022-10-16T02:46:48;98772.25;;;14.25;100.00
45621;BME280;31345;51.522;10.702;2022-10-16T02:49:16;98773.84;;;14.47;100.00
45621;BME280;31345;51.522;10.702;2022-10-16T02:51:44;98784.19;;;14.39;100.00
45621;BME280;31345;51.522;10.702;2022-10-16T02:54:11;98778.94;;;14.39;100.00
45621;BME280;31345;51.522;10.702;2022-10-16T02:56:40;98782.97;;;14.43;100.00
45621;BME280;31345;51.522;10.702;2022-10-16T02:59:07;98781.88;;;14.46;100.00
45621;BME280;31345;51.522;10.702;2022-10-16T03:01:36;98783.69;;;14.45;100.00
45621;BME280;31345;51.522;10.702;2022-10-16T03:04:04;98777.56;;;14.45;100.00
45621;BME280;31345;51.522;10.702;2022-10-16T03:06:32;98776.16;;;14.40;100.00
45621;BME280;31345;51.522;10.702;2022-10-16T03:08:59;98768.88;;;14.44;100.00
45621;BME280;31345;51.522;10.702;2022-10-16T03:11:27;98776.31;;;14.39;100.00
45621;BME280;31345;51.522;10.702;2022-10-16T03:13:55;98777.41;;;14.36;100.00
45621;BME280;31345;51.522;10.702;2022-10-16T03:16:22;98778.25;;;14.37;100.00
45621;BME280;31345;51.522;10.702;2022-10-16T03:18:52;98781.69;;;14.37;100.00
45621;BME280;31345;51.522;10.702;2022-10-16T03:23:48;98794.16;;;14.35;100.00
45621;BME280;31345;51.522;10.702;2022-10-16T03:26:16;98784.31;;;14.37;100.00
45621;BME280;31345;51.522;10.702;2022-10-16T03:28:43;98783.22;;;14.30;100.00
45621;BME280;31345;51.522;10.702;2022-10-16T03:31:11;98780.13;;;14.25;100.00
45621;BME280;31345;51.522;10.702;2022-10-16T03:33:39;98786.75;;;14.19;100.00
45621;BME280;31345;51.522;10.702;2022-10-16T03:36:08;98789.78;;;14.14;100.00
45621;BME280;31345;51.522;10.702;2022-10-16T03:38:36;98774.56;;;14.18;100.00
45621;BME280;31345;51.522;10.702;2022-10-16T03:41:04;98781.66;;;14.18;100.00
45621;BME280;31345;51.522;10.702;2022-10-16T03:43:34;98782.41;;;14.08;100.00
45621;BME280;31345;51.522;10.702;2022-10-16T03:46:02;98790.72;;;14.13;100.00
45621;BME280;31345;51.522;10.702;2022-10-16T03:48:29;98800.25;;;14.05;100.00
45621;BME280;31345;51.522;10.702;2022-10-16T03:50:58;98801.34;;;14.02;100.00
45621;BME280;31345;51.522;10.702;2022-10-16T03:53:27;98808.28;;;14.03;100.00
45621;BME280;31345;51.522;10.702;2022-10-16T03:55:55;98795.00;;;14.05;100.00
45621;BME280;31345;51.522;10.702;2022-10-16T03:58:23;98798.44;;;14.05;100.00
45621;BME280;31345;51.522;10.702;2022-10-16T04:00:50;98811.47;;;14.07;100.00
45621;BME280;31345;51.522;10.702;2022-10-16T04:03:18;98817.31;;;14.10;100.00
45621;BME280;31345;51.522;10.702;2022-10-16T04:05:47;98815.84;;;14.27;100.00
45621;BME280;31345;51.522;10.702;2022-10-16T04:08:15;98817.22;;;14.22;100.00
45621;BME280;31345;51.522;10.702;2022-10-16T04:10:44;98827.78;;;14.32;100.00
45621;BME280;31345;51.522;10.702;2022-10-16T04:13:12;98826.47;;;14.16;100.00
45621;BME280;31345;51.522;10.702;2022-10-16T04:15:40;98835.59;;;14.12;100.00
45621;BME280;31345;51.522;10.702;2022-10-16T04:18:08;98835.03;;;14.18;100.00
45621;BME280;31345;51.522;10.702;2022-10-16T04:20:36;98836.94;;;14.06;100.00
45621;BME280;31345;51.522;10.702;2022-10-16T04:23:04;98837.56;;;13.98;100.00
45621;BME280;31345;51.522;10.702;2022-10-16T04:25:31;98838.53;;;13.97;100.00
45621;BME280;31345;51.522;10.702;2022-10-16T04:28:00;98846.09;;;13.91;100.00
45621;BME280;31345;51.522;10.702;2022-10-16T04:30:28;98833.28;;;13.76;100.00
45621;BME280;31345;51.522;10.702;2022-10-16T04:32:56;98848.22;;;13.75;100.00
45621;BME280;31345;51.522;10.702;2022-10-16T04:35:23;98852.81;;;13.62;100.00
45621;BME280;31345;51.522;10.702;2022-10-16T04:37:51;98849.84;;;13.55;100.00
45621;BME280;31345;51.522;10.702;2022-10-16T04:40:19;98840.66;;;13.49;100.00
45621;BME280;31345;51.522;10.702;2022-10-16T04:42:47;98849.03;;;13.43;100.00
45621;BME280;31345;51.522;10.702;2022-10-16T04:45:16;98851.22;;;13.38;100.00
45621;BME280;31345;51.522;10.702;2022-10-16T04:47:44;98854.16;;;13.45;100.00
45621;BME280;31345;51.522;10.702;2022-10-16T04:50:11;98851.38;;;13.25;100.00
45621;BME280;31345;51.522;10.702;2022-10-16T04:52:39;98842.34;;;13.18;100.00
45621;BME280;31345;51.522;10.702;2022-10-16T04:58:26;98854.91;;;12.91;100.00
45621;BME280;31345;51.522;10.702;2022-10-16T05:01:00;98850.41;;;12.82;100.00
45621;BME280;31345;51.522;10.702;2022-10-16T05:03:27;98851.84;;;12.75;100.00
45621;BME280;31345;51.522;10.702;2022-10-16T05:05:55;98854.94;;;12.80;100.00
45621;BME280;31345;51.522;10.702;2022-10-16T05:08:23;98858.50;;;12.90;100.00
45621;BME280;31345;51.522;10.702;2022-10-16T05:10:53;98867.78;;;13.06;100.00
45621;BME280;31345;51.522;10.702;2022-10-16T05:13:21;98867.91;;;13.04;100.00
45621;BME280;31345;51.522;10.702;2022-10-16T05:15:49;98860.72;;;13.18;100.00
45621;BME280;31345;51.522;10.702;2022-10-16T05:18:21;98870.50;;;13.16;100.00
45621;BME280;31345;51.522;10.702;2022-10-16T05:20:49;98887.78;;;13.18;100.00
45621;BME280;31345;51.522;10.702;2022-10-16T05:23:16;98883.25;;;13.20;100.00
45621;BME280;31345;51.522;10.702;2022-10-16T05:25:52;98874.69;;;13.07;100.00
45621;BME280;31345;51.522;10.702;2022-10-16T05:28:31;98870.84;;;13.11;100.00
45621;BME280;31345;51.522;10.702;2022-10-16T05:30:58;98869.53;;;13.17;100.00
45621;BME280;31345;51.522;10.702;2022-10-16T05:33:28;98856.16;;;13.20;100.00
45621;BME280;31345;51.522;10.702;2022-10-16T05:35:56;98867.28;;;13.23;100.00
45621;BME280;31345;51.522;10.702;2022-10-16T05:38:23;98868.44;;;13.19;100.00
45621;BME280;31345;51.522;10.702;2022-10-16T05:40:52;98863.47;;;13.16;100.00
45621;BME280;31345;51.522;10.702;2022-10-16T05:43:20;98868.38;;;13.09;100.00
45621;BME280;31345;51.522;10.702;2022-10-16T05:45:55;98868.28;;;13.00;100.00
45621;BME280;31345;51.522;10.702;2022-10-16T05:48:23;98861.69;;;13.05;100.00
45621;BME280;31345;51.522;10.702;2022-10-16T05:50:58;98864.22;;;12.95;100.00
45621;BME280;31345;51.522;10.702;2022-10-16T05:53:28;98857.06;;;12.97;100.00
45621;BME280;31345;51.522;10.702;2022-10-16T05:55:57;98853.38;;;12.89;100.00
45621;BME280;31345;51.522;10.702;2022-10-16T05:58:30;98856.38;;;12.95;100.00
45621;BME280;31345;51.522;10.702;2022-10-16T06:01:00;98842.97;;;12.98;100.00
45621;BME280;31345;51.522;10.702;2022-10-16T06:03:28;98838.34;;;13.02;100.00
45621;BME280;31345;51.522;10.702;2022-10-16T06:05:57;98838.34;;;12.91;100.00
45621;BME280;31345;51.522;10.702;2022-10-16T06:08:27;98837.25;;;12.93;100.00
45621;BME280;31345;51.522;10.702;2022-10-16T06:11:01;98851.44;;;13.02;100.00
45621;BME280;31345;51.522;10.702;2022-10-16T06:13:29;98883.41;;;13.07;100.00
45621;BME280;31345;51.522;10.702;2022-10-16T06:19:15;98894.13;;;13.04;100.00
45621;BME280;31345;51.522;10.702;2022-10-16T06:21:45;98893.09;;;12.95;100.00
45621;BME280;31345;51.522;10.702;2022-10-16T06:24:13;98903.31;;;12.98;100.00
45621;BME280;31345;51.522;10.702;2022-10-16T06:26:43;98923.50;;;13.09;100.00
45621;BME280;31345;51.522;10.702;2022-10-16T06:29:11;98922.41;;;13.12;100.00
45621;BME280;31345;51.522;10.702;2022-10-16T06:31:39;98922.28;;;13.14;100.00
45621;BME280;31345;51.522;10.702;2022-10-16T06:34:09;98915.56;;;13.21;100.00
45621;BME280;31345;51.522;10.702;2022-10-16T06:36:38;98916.78;;;13.17;100.00
45621;BME280;31345;51.522;10.702;2022-10-16T06:39:07;98922.25;;;13.25;100.00
45621;BME280;31345;51.522;10.702;2022-10-16T06:41:35;98939.69;;;13.37;100.00
45621;BME280;31345;51.522;10.702;2022-10-16T06:44:15;98953.59;;;13.49;100.00
45621;BME280;31345;51.522;10.702;2022-10-16T06:46:42;98953.72;;;13.48;100.00
45621;BME280;31345;51.522;10.702;2022-10-16T06:49:10;98961.47;;;13.61;100.00
45621;BME280;31345;51.522;10.702;2022-10-16T06:51:38;98966.81;;;13.71;100.00
45621;BME280;31345;51.522;10.702;2022-10-16T06:54:09;98966.38;;;13.66;100.00
45621;BME280;31345;51.522;10.702;2022-10-16T06:56:36;98965.00;;;13.71;100.00
45621;BME280;31345;51.522;10.702;2022-10-16T06:59:04;98974.47;;;13.74;100.00
45621;BME280;31345;51.522;10.702;2022-10-16T07:01:35;98969.53;;;13.81;100.00
45621;BME280;31345;51.522;10.702;2022-10-16T07:07:21;98985.88;;;14.17;100.00
45621;BME280;31345;51.522;10.702;2022-10-16T07:09:52;98995.19;;;14.21;100.00
45621;BME280;31345;51.522;10.702;2022-10-16T07:12:22;98998.97;;;14.29;100.00
45621;BME280;31345;51.522;10.702;2022-10-16T07:14:50;98986.72;;;14.39;100.00
45621;BME280;31345;51.522;10.702;2022-10-16T07:17:18;98981.50;;;14.49;100.00
45621;BME280;31345;51.522;10.702;2022-10-16T07:19:46;98984.72;;;14.52;100.00
45621;BME280;31345;51.522;10.702;2022-10-16T07:22:13;98989.94;;;14.64;100.00
45621;BME280;31345;51.522;10.702;2022-10-16T07:24:41;99009.03;;;14.66;100.00
45621;BME280;31345;51.522;10.702;2022-10-16T07:27:11;99006.94;;;14.91;100.00
45621;BME280;31345;51.522;10.702;2022-10-16T07:29:39;99022.91;;;15.21;100.00
45621;BME280;31345;51.522;10.702;2022-10-16T07:32:06;99030.53;;;15.24;100.00
45621;BME280;31345;51.522;10.702;2022-10-16T07:34:37;99032.50;;;15.22;100.00
45621;BME280;31345;51.522;10.702;2022-10-16T07:37:05;99016.00;;;15.29;100.00
45621;BME280;31345;51.522;10.702;2022-10-16T07:39:33;99011.75;;;15.38;100.00
45621;BME280;31345;51.522;10.702;2022-10-16T07:42:01;99010.38;;;15.44;100.00
45621;BME280;31345;51.522;10.702;2022-10-16T07:44:33;99025.34;;;15.43;100.00
45621;BME280;31345;51.522;10.702;2022-10-16T07:47:00;99033.38;;;15.42;100.00
45621;BME280;31345;51.522;10.702;2022-10-16T07:49:29;99031.47;;;15.44;100.00
45621;BME280;31345;51.522;10.702;2022-10-16T07:51:59;99036.31;;;15.49;100.00
45621;BME280;31345;51.522;10.702;2022-10-16T07:54:27;99027.97;;;15.43;100.00
45621;BME280;31345;51.522;10.702;2022-10-16T07:56:55;99028.53;;;15.47;100.00
45621;BME280;31345;51.522;10.702;2022-10-16T07:59:24;99037.19;;;15.69;100.00
45621;BME280;31345;51.522;10.702;2022-10-16T08:01:57;99040.34;;;15.53;100.00
45621;BME280;31345;51.522;10.702;2022-10-16T08:04:24;99048.53;;;15.60;100.00
45621;BME280;31345;51.522;10.702;2022-10-16T08:07:17;99045.22;;;15.67;100.00
45621;BME280;31345;51.522;10.702;2022-10-16T08:09:48;99045.22;;;15.67;100.00
45621;BME280;31345;51.522;10.702;2022-10-16T08:12:16;99049.78;;;15.65;100.00
45621;BME280;31345;51.522;10.702;2022-10-16T08:14:44;99048.41;;;15.61;100.00
45621;BME280;31345;51.522;10.702;2022-10-16T08:17:15;99054.50;;;15.62;100.00
45621;BME280;31345;51.522;10.702;2022-10-16T08:19:44;99046.75;;;15.70;100.00
45621;BME280;31345;51.522;10.702;2022-10-16T08:22:12;99047.03;;;15.67;100.00
45621;BME280;31345;51.522;10.702;2022-10-16T08:24:40;99060.09;;;15.78;100.00
45621;BME280;31345;51.522;10.702;2022-10-16T08:27:08;99068.53;;;15.62;100.00
45621;BME280;31345;51.522;10.702;2022-10-16T08:29:36;99077.16;;;15.74;100.00
45621;BME280;31345;51.522;10.702;2022-10-16T08:32:05;99077.06;;;15.95;100.00
45621;BME280;31345;51.522;10.702;2022-10-16T08:34:34;99083.47;;;16.03;100.00
45621;BME280;31345;51.522;10.702;2022-10-16T08:37:01;99073.72;;;16.03;100.00
45621;BME280;31345;51.522;10.702;2022-10-16T08:39:29;99078.88;;;16.15;100.00
45621;BME280;31345;51.522;10.702;2022-10-16T08:42:25;99077.94;;;16.36;100.00
45621;BME280;31345;51.522;10.702;2022-10-16T08:47:54;99094.75;;;16.44;100.00
45621;BME280;31345;51.522;10.702;2022-10-16T08:50:31;99098.50;;;16.32;100.00
45621;BME280;31345;51.522;10.702;2022-10-16T08:56:25;99103.06;;;16.20;100.00
45621;BME280;31345;51.522;10.702;2022-10-16T08:58:54;99111.38;;;16.25;100.00
45621;BME280;31345;51.522;10.702;2022-10-16T09:01:44;99106.56;;;16.30;100.00
45621;BME280;31345;51.522;10.702;2022-10-16T09:07:55;99107.81;;;16.36;100.00
45621;BME280;31345;51.522;10.702;2022-10-16T09:10:41;99112.25;;;16.45;100.00
45621;BME280;31345;51.522;10.702;2022-10-16T09:13:18;99133.09;;;16.58;100.00
45621;BME280;31345;51.522;10.702;2022-10-16T09:15:56;99137.81;;;16.55;100.00
45621;BME280;31345;51.522;10.702;2022-10-16T09:18:38;99139.75;;;16.43;100.00
45621;BME280;31345;51.522;10.702;2022-10-16T09:21:15;99140.47;;;16.45;100.00
45621;BME280;31345;51.522;10.702;2022-10-16T09:24:13;99143.63;;;16.39;100.00
45621;BME280;31345;51.522;10.702;2022-10-16T09:26:45;99147.41;;;16.56;100.00
45621;BME280;31345;51.522;10.702;2022-10-16T09:29:35;99134.47;;;16.53;100.00
45621;BME280;31345;51.522;10.702;2022-10-16T09:32:10;99132.81;;;16.62;100.00
45621;BME280;31345;51.522;10.702;2022-10-16T09:34:42;99122.25;;;16.81;100.00
45621;BME280;31345;51.522;10.702;2022-10-16T09:37:13;99126.16;;;16.77;100.00
45621;BME280;31345;51.522;10.702;2022-10-16T09:39:45;99133.91;;;16.89;99.40
45621;BME280;31345;51.522;10.702;2022-10-16T09:42:16;99141.72;;;16.80;98.73
45621;BME280;31345;51.522;10.702;2022-10-16T09:44:47;99140.31;;;16.76;100.00
45621;BME280;31345;51.522;10.702;2022-10-16T09:47:25;99143.09;;;16.75;100.00
45621;BME280;31345;51.522;10.702;2022-10-16T09:53:19;99142.00;;;16.77;96.70
45621;BME280;31345;51.522;10.702;2022-10-16T09:55:50;99148.78;;;16.60;100.00
45621;BME280;31345;51.522;10.702;2022-10-16T09:58:21;99142.84;;;16.58;99.92
45621;BME280;31345;51.522;10.702;2022-10-16T10:00:51;99134.75;;;16.59;97.20
45621;BME280;31345;51.522;10.702;2022-10-16T10:03:33;99148.66;;;16.71;99.31
45621;BME280;31345;51.522;10.702;2022-10-16T10:06:17;99143.75;;;16.96;96.40
45621;BME280;31345;51.522;10.702;2022-10-16T10:08:54;99154.44;;;17.05;96.65
45621;BME280;31345;51.522;10.702;2022-10-16T10:11:54;99155.81;;;17.19;96.00
45621;BME280;31345;51.522;10.702;2022-10-16T10:14:28;99159.81;;;17.33;97.18
45621;BME280;31345;51.522;10.702;2022-10-16T10:17:17;99158.84;;;17.82;95.48
45621;BME280;31345;51.522;10.702;2022-10-16T10:19:50;99147.91;;;18.23;92.22
45621;BME280;31345;51.522;10.702;2022-10-16T10:22:30;99157.78;;;18.03;89.95
45621;BME280;31345;51.522;10.702;2022-10-16T10:25:32;99151.97;;;17.89;92.96
45621;BME280;31345;51.522;10.702;2022-10-16T10:31:03;99169.31;;;17.73;93.80
45621;BME280;31345;51.522;10.702;2022-10-16T10:34:03;99174.41;;;17.37;92.42
45621;BME280;31345;51.522;10.702;2022-10-16T10:36:37;99166.06;;;17.52;90.42
45621;BME280;31345;51.522;10.702;2022-10-16T10:39:08;99175.13;;;17.49;92.84
45621;BME280;31345;51.522;10.702;2022-10-16T10:41:56;99175.50;;;17.44;91.14
45621;BME280;31345;51.522;10.702;2022-10-16T10:44:39;99164.13;;;17.34;90.91
45621;BME280;31345;51.522;10.702;2022-10-16T10:47:27;99175.84;;;17.21;93.35
45621;BME280;31345;51.522;10.702;2022-10-16T10:50:22;99176.38;;;17.45;91.60
45621;BME280;31345;51.522;10.702;2022-10-16T10:52:58;99179.84;;;17.45;91.42
45621;BME280;31345;51.522;10.702;2022-10-16T10:55:36;99172.00;;;17.92;90.58
45621;BME280;31345;51.522;10.702;2022-10-16T10:58:31;99174.84;;;18.36;86.34
45621;BME280;31345;51.522;10.702;2022-10-16T11:01:14;99173.09;;;17.99;88.68
45621;BME280;31345;51.522;10.702;2022-10-16T11:04:03;99179.50;;;18.24;87.98
45621;BME280;31345;51.522;10.702;2022-10-16T11:06:36;99179.66;;;17.57;90.59
45621;BME280;31345;51.522;10.702;2022-10-16T11:09:10;99173.50;;;18.04;89.00
45621;BME280;31345;51.522;10.702;2022-10-16T11:11:44;99179.28;;;17.90;87.76
45621;BME280;31345;51.522;10.702;2022-10-16T11:14:16;99161.69;;;18.26;85.80
45621;BME280;31345;51.522;10.702;2022-10-16T11:16:51;99168.25;;;17.94;88.07
45621;BME280;31345;51.522;10.702;2022-10-16T11:19:28;99176.47;;;18.65;83.43
45621;BME280;31345;51.522;10.702;2022-10-16T11:22:03;99166.09;;;19.17;84.57
45621;BME280;31345;51.522;10.702;2022-10-16T11:24:37;99160.59;;;19.10;79.20
45621;BME280;31345;51.522;10.702;2022-10-16T11:27:10;99166.69;;;19.29;79.77
45621;BME280;31345;51.522;10.702;2022-10-16T11:29:45;99173.72;;;19.65;78.77
45621;BME280;31345;51.522;10.702;2022-10-16T11:32:21;99165.53;;;19.93;77.49
45621;BME280;31345;51.522;10.702;2022-10-16T11:34:53;99156.41;;;19.87;72.38
45621;BME280;31345;51.522;10.702;2022-10-16T11:37:28;99166.63;;;19.74;73.02
45621;BME280;31345;51.522;10.702;2022-10-16T11:40:05;99176.25;;;19.75;75.70
45621;BME280;31345;51.522;10.702;2022-10-16T11:42:44;99175.41;;;19.48;72.07
45621;BME280;31345;51.522;10.702;2022-10-16T11:45:24;99176.34;;;19.38;75.27
45621;BME280;31345;51.522;10.702;2022-10-16T11:48:00;99174.53;;;19.39;75.20
45621;BME280;31345;51.522;10.702;2022-10-16T11:50:33;99171.56;;;19.42;72.37
45621;BME280;31345;51.522;10.702;2022-10-16T11:53:10;99176.59;;;19.27;73.83
45621;BME280;31345;51.522;10.702;2022-10-16T11:55:43;99175.94;;;19.25;74.98
45621;BME280;31345;51.522;10.702;2022-10-16T11:58:19;99161.59;;;19.09;74.13
45621;BME280;31345;51.522;10.702;2022-10-16T12:00:58;99168.28;;;18.95;77.41
45621;BME280;31345;51.522;10.702;2022-10-16T12:03:36;99176.34;;;19.12;76.36
45621;BME280;31345;51.522;10.702;2022-10-16T12:06:30;99162.84;;;18.97;74.61
45621;BME280;31345;51.522;10.702;2022-10-16T12:08:59;99161.44;;;19.11;74.74
45621;BME280;31345;51.522;10.702;2022-10-16T12:11:34;99170.22;;;19.11;73.74
45621;BME280;31345;51.522;10.702;2022-10-16T12:17:24;99168.78;;;18.99;73.13
45621;BME280;31345;51.522;10.702;2022-10-16T12:20:23;99167.34;;;19.04;74.33
45621;BME280;31345;51.522;10.702;2022-10-16T12:22:55;99172.66;;;19.31;72.72
45621;BME280;31345;51.522;10.702;2022-10-16T12:25:25;99172.44;;;18.98;72.79
45621;BME280;31345;51.522;10.702;2022-10-16T12:27:55;99175.16;;;19.06;72.86
45621;BME280;31345;51.522;10.702;2022-10-16T12:30:25;99172.22;;;18.91;74.80
45621;BME280;31345;51.522;10.702;2022-10-16T12:32:54;99163.94;;;19.12;74.17
45621;BME280;31345;51.522;10.702;2022-10-16T12:35:26;99167.00;;;18.99;76.18
45621;BME280;31345;51.522;10.702;2022-10-16T12:38:08;99177.91;;;19.23;74.81
45621;BME280;31345;51.522;10.702;2022-10-16T12:40:43;99182.31;;;19.59;74.85
45621;BME280;31345;51.522;10.702;2022-10-16T12:46:00;99183.59;;;19.10;76.70
45621;BME280;31345;51.522;10.702;2022-10-16T12:48:28;99183.09;;;19.06;76.73
45621;BME280;31345;51.522;10.702;2022-10-16T12:51:09;99183.00;;;19.42;70.78
45621;BME280;31345;51.522;10.702;2022-10-16T12:53:38;99181.19;;;19.43;73.32
45621;BME280;31345;51.522;10.702;2022-10-16T12:56:14;99175.56;;;19.20;73.08
45621;BME280;31345;51.522;10.702;2022-10-16T12:58:54;99166.31;;;19.24;71.47
45621;BME280;31345;51.522;10.702;2022-10-16T13:01:37;99172.66;;;19.31;73.79
45621;BME280;31345;51.522;10.702;2022-10-16T13:07:20;99186.97;;;19.38;71.85
45621;BME280;31345;51.522;10.702;2022-10-16T13:10:05;99194.13;;;19.20;73.32
45621;BME280;31345;51.522;10.702;2022-10-16T13:12:48;99193.63;;;18.98;71.71
45621;BME280;31345;51.522;10.702;2022-10-16T13:15:32;99190.34;;;19.22;69.94
45621;BME280;31345;51.522;10.702;2022-10-16T13:18:09;99197.34;;;19.32;72.41
45621;BME280;31345;51.522;10.702;2022-10-16T13:20:55;99202.06;;;19.20;72.18
45621;BME280;31345;51.522;10.702;2022-10-16T13:23:31;99209.06;;;19.21;74.27
45621;BME280;31345;51.522;10.702;2022-10-16T13:26:12;99209.59;;;19.06;73.19
45621;BME280;31345;51.522;10.702;2022-10-16T13:28:42;99212.94;;;19.08;72.61
45621;BME280;31345;51.522;10.702;2022-10-16T13:31:14;99208.75;;;19.06;70.83
45621;BME280;31345;51.522;10.702;2022-10-16T13:33:46;99212.63;;;18.93;74.16
45621;BME280;31345;51.522;10.702;2022-10-16T13:36:21;99214.81;;;18.98;72.55
45621;BME280;31345;51.522;10.702;2022-10-16T13:38:59;99219.97;;;18.81;73.72
45621;BME280;31345;51.522;10.702;2022-10-16T13:41:27;99218.91;;;18.74;72.51
45621;BME280;31345;51.522;10.702;2022-10-16T13:43:56;99227.03;;;18.44;74.70
45621;BME280;31345;51.522;10.702;2022-10-16T13:46:25;99233.94;;;18.27;78.23